This is the latest recevied weather packets stored in our database for station/object W0SS-13. If no packets are shown the sender has not sent any weather packets the latest 10 day(s).
| Time | Temp. | Humidity | Pressure | Rain* | Wind** | Luminosity | Snow |
|---|---|---|---|---|---|---|---|
| 1777652609 | 15° C | 42% | 1020.1 hPa | 0 mm | - | 713 W/m² | - |
| 1777652306 | 15° C | 42% | 1020.1 hPa | 0 mm | - | 705 W/m² | - |
| 1777652003 | 15° C | 42% | 1020 hPa | 0 mm | - | 695 W/m² | - |
| 1777651699 | 15° C | 44% | 1020.2 hPa | 0 mm | - | 685 W/m² | - |
| 1777651396 | 14.44° C | 41% | 1020.2 hPa | 0 mm | - | 676 W/m² | - |
| 1777651094 | 14.44° C | 41% | 1020.1 hPa | 0 mm | - | 665 W/m² | - |
| 1777650790 | 14.44° C | 39% | 1020 hPa | 0 mm | - | 655 W/m² | - |
| 1777650487 | 14.44° C | 41% | 1020 hPa | 0 mm | - | 643 W/m² | - |
| 1777650184 | 14.44° C | 47% | 1019.9 hPa | 0 mm | - | 632 W/m² | - |
| 1777649882 | 14.44° C | 48% | 1019.9 hPa | 0 mm | - | 620 W/m² | - |
| 1777649579 | 13.89° C | 46% | 1020.2 hPa | 0 mm | - | 607 W/m² | - |
| 1777649275 | 13.89° C | 42% | 1020.1 hPa | 0 mm | - | 596 W/m² | - |
| 1777648972 | 13.33° C | 48% | 1020.2 hPa | 0 mm | - | 581 W/m² | - |
| 1777648670 | 13.89° C | 45% | 1019.9 hPa | 0 mm | - | 569 W/m² | - |
| 1777648365 | 13.33° C | 45% | 1019.9 hPa | 0 mm | - | 557 W/m² | - |
| 1777648062 | 13.33° C | 47% | 1020 hPa | 0 mm | - | 543 W/m² | - |
| 1777647758 | 13.33° C | 49% | 1020.1 hPa | 0 mm | - | 532 W/m² | - |
| 1777647454 | 13.33° C | 48% | 1019.8 hPa | 0 mm | - | 515 W/m² | - |
| 1777647152 | 12.78° C | 47% | 1020.1 hPa | 0 mm | - | 499 W/m² | - |
| 1777646848 | 12.78° C | 53% | 1020 hPa | 0 mm | - | 482 W/m² | - |
| 1777646544 | 12.78° C | 52% | 1020 hPa | 0 mm | - | 468 W/m² | - |
| 1777646241 | 12.78° C | 53% | 1019.7 hPa | 0 mm | - | 453 W/m² | - |
| 1777645938 | 12.78° C | 54% | 1019.9 hPa | 0 mm | - | 438 W/m² | - |
| 1777645635 | 12.78° C | 55% | 1019.9 hPa | 0 mm | - | 424 W/m² | - |
| 1777645330 | 12.22° C | 58% | 1020.1 hPa | 0 mm | - | 408 W/m² | - |
* Rain latest hour (hover to see other rain measurements)
** Current wind speed in m/s (hover to see current wind gust speed)